Time;durP1;ratioP1;P1;durP2;ratioP2;P2;SDS_P1;SDS_P2;PMS_P1;PMS_P2;Temp;Humidity;BMP_temperature;BMP_pressure;BME280_temperature;BME280_humidity;BME280_pressure;Samples;Min_cycle;Max_cycle;Signal;HPM_P1;HPM_P2
2022/05/16 00:02:19;;;;;;;10.23;3.80;;;;;;;21.82;38.73;101572.66;5051978;28;20040;-68
2022/05/16 00:04:48;;;;;;;5.78;2.22;;;;;;;21.96;38.43;101569.28;5051874;28;20388;-68
2022/05/16 00:07:13;;;;;;;10.52;2.95;;;;;;;22.34;37.25;101563.81;5052387;28;20036;-67
2022/05/16 00:09:39;;;;;;;7.13;2.80;;;;;;;22.54;37.07;101566.38;5051991;28;20553;-68
2022/05/16 00:12:06;;;;;;;10.10;2.97;;;;;;;22.55;37.28;101562.53;5051779;28;20041;-67
2022/05/16 00:14:32;;;;;;;6.95;2.17;;;;;;;22.57;36.97;101552.16;5051842;28;20048;-67
2022/05/16 00:16:57;;;;;;;11.60;3.20;;;;;;;22.23;37.96;101551.28;5052084;28;20033;-67
2022/05/16 00:19:23;;;;;;;7.97;3.20;;;;;;;22.34;37.55;101549.31;5052522;28;20371;-67
2022/05/16 00:21:48;;;;;;;7.82;2.30;;;;;;;22.45;37.35;101554.41;5051558;28;20048;-67
2022/05/16 00:24:13;;;;;;;8.13;2.38;;;;;;;22.14;38.21;101541.25;5033219;28;20030;-67
2022/05/16 00:26:39;;;;;;;9.52;2.75;;;;;;;22.27;37.70;101546.88;5045663;28;20044;-68
2022/05/16 00:29:05;;;;;;;12.35;3.40;;;;;;;22.30;37.56;101548.25;5051613;28;20029;-67
2022/05/16 00:31:30;;;;;;;9.82;2.35;;;;;;;22.23;37.94;101556.78;5051944;28;20033;-68
2022/05/16 00:33:55;;;;;;;9.32;2.67;;;;;;;22.25;37.10;101557.31;5051438;28;20029;-68
2022/05/16 00:36:21;;;;;;;15.05;2.70;;;;;;;22.27;37.47;101546.09;5051281;28;20048;-67
2022/05/16 00:38:46;;;;;;;17.63;3.67;;;;;;;22.21;38.23;101549.97;5051527;28;20381;-66
2022/05/16 00:41:12;;;;;;;5.60;2.03;;;;;;;22.13;37.81;101545.88;5051537;28;20083;-68
2022/05/16 00:43:55;;;;;;;6.10;2.55;;;;;;;22.07;38.01;101543.50;5052038;28;20037;-66
2022/05/16 00:46:22;;;;;;;10.73;2.17;;;;;;;22.00;37.68;101543.81;5051703;28;20036;-67
2022/05/16 00:48:48;;;;;;;8.73;2.80;;;;;;;22.01;38.01;101542.72;5051336;28;20110;-67
2022/05/16 00:51:27;;;;;;;10.75;3.13;;;;;;;22.12;37.30;101549.75;5051179;28;20083;-67
2022/05/16 00:54:05;;;;;;;11.07;3.05;;;;;;;21.98;38.37;101542.44;5051275;28;20040;-66
2022/05/16 00:56:32;;;;;;;9.43;3.50;;;;;;;22.05;37.60;101542.97;5051069;28;20052;-67
2022/05/16 00:58:58;;;;;;;7.60;2.17;;;;;;;22.03;37.45;101534.22;5051224;28;20104;-68
2022/05/16 01:07:12;;;;;;;14.30;2.85;;;;;;;21.82;37.60;101528.03;5028275;28;20044;-68
2022/05/16 01:09:37;;;;;;;9.85;2.60;;;;;;;21.78;38.06;101529.66;5028209;28;20037;-68
2022/05/16 01:12:03;;;;;;;12.23;2.78;;;;;;;21.87;38.26;101519.00;5028313;28;20539;-67
2022/05/16 01:14:46;;;;;;;11.00;2.70;;;;;;;21.67;38.57;101526.19;5028182;28;20045;-68
2022/05/16 01:17:12;;;;;;;8.73;2.50;;;;;;;21.68;38.57;101522.34;5011651;28;20120;-67
2022/05/16 01:19:38;;;;;;;11.07;2.88;;;;;;;21.53;38.34;101522.44;5028623;28;20035;-67
2022/05/16 01:22:18;;;;;;;13.30;3.53;;;;;;;21.45;38.90;101528.47;5027095;28;20045;-67
2022/05/16 01:24:44;;;;;;;7.70;2.30;;;;;;;21.34;39.21;101518.69;5028230;28;20037;-67
2022/05/16 01:27:09;;;;;;;9.63;3.15;;;;;;;21.49;38.89;101521.34;5028030;28;20052;-67
2022/05/16 01:29:34;;;;;;;10.52;2.65;;;;;;;21.47;39.04;101518.09;5028098;28;20034;-68
2022/05/16 01:32:00;;;;;;;10.95;2.90;;;;;;;21.63;38.45;101527.84;5027928;28;20316;-67
2022/05/16 01:34:25;;;;;;;13.13;2.90;;;;;;;21.54;38.43;101518.59;5031954;28;20056;-67
2022/05/16 01:36:51;;;;;;;10.43;3.33;;;;;;;21.54;38.81;101521.31;5050233;28;20040;-69
2022/05/16 01:39:16;;;;;;;7.85;2.33;;;;;;;21.49;38.90;101515.06;5050543;28;20044;-68
2022/05/16 01:41:41;;;;;;;15.80;3.33;;;;;;;21.56;38.66;101513.66;5050434;28;20527;-69
2022/05/16 01:44:07;;;;;;;10.32;3.10;;;;;;;21.60;38.53;101503.78;5050251;28;20167;-68
2022/05/16 01:46:35;;;;;;;11.40;3.13;;;;;;;21.46;39.27;101504.69;5051046;28;20033;-68
2022/05/16 01:49:02;;;;;;;6.40;2.45;;;;;;;21.52;38.61;101506.31;5050419;28;20029;-69
2022/05/16 01:51:28;;;;;;;7.55;2.10;;;;;;;21.58;38.64;101502.44;5050319;28;20057;-68
2022/05/16 01:53:53;;;;;;;7.53;2.83;;;;;;;21.44;39.19;101493.22;5050215;28;20041;-67
2022/05/16 01:56:19;;;;;;;9.52;2.60;;;;;;;21.54;38.43;101495.91;5049625;28;20408;-68
2022/05/16 01:58:45;;;;;;;15.15;3.60;;;;;;;21.47;39.04;101496.19;5050733;28;20044;-68
2022/05/16 02:01:12;;;;;;;6.47;2.78;;;;;;;21.17;39.90;101496.31;5050275;28;20082;-67
2022/05/16 02:03:44;;;;;;;10.93;2.88;;;;;;;21.11;40.03;101493.91;5050459;28;20060;-68
2022/05/16 02:06:10;;;;;;;7.43;2.40;;;;;;;20.89;40.41;101489.56;5050027;28;20080;-68
2022/05/16 02:08:37;;;;;;;14.23;3.03;;;;;;;20.89;40.07;101497.75;5050389;28;20484;-67
2022/05/16 02:11:04;;;;;;;9.82;2.88;;;;;;;20.87;40.64;101497.22;5050512;28;20033;-67
2022/05/16 02:13:29;;;;;;;11.30;3.33;;;;;;;20.88;40.44;101495.31;5050449;28;20021;-69
2022/05/16 02:15:54;;;;;;;17.48;4.75;;;;;;;20.91;40.61;101486.56;5050115;28;20091;-68
2022/05/16 02:18:20;;;;;;;10.30;3.60;;;;;;;20.71;40.99;101478.41;5050181;28;20108;-68
2022/05/16 02:20:46;;;;;;;8.45;2.95;;;;;;;20.81;40.86;101475.66;5049746;28;20094;-67
2022/05/16 02:25:56;;;;;;;10.43;3.80;;;;;;;21.15;39.98;101471.19;5038323;28;20075;-68
2022/05/16 02:28:23;;;;;;;5.97;2.88;;;;;;;21.17;39.83;101468.19;5050564;28;20075;-67
2022/05/16 02:30:49;;;;;;;9.73;3.15;;;;;;;21.17;39.98;101466.25;5049969;28;20048;-67
2022/05/16 02:33:16;;;;;;;8.82;2.20;;;;;;;21.14;39.90;101463.28;5052249;28;20128;-68
2022/05/16 02:35:43;;;;;;;11.80;3.63;;;;;;;21.12;40.40;101458.09;5053652;28;20052;-67
2022/05/16 02:38:10;;;;;;;10.98;2.88;;;;;;;21.16;39.92;101445.50;5053661;28;20128;-67
2022/05/16 02:40:36;;;;;;;11.65;2.97;;;;;;;21.02;40.86;101447.19;5054341;28;20041;-69
2022/05/16 02:43:03;;;;;;;10.88;2.80;;;;;;;20.89;40.58;101450.50;5053862;28;20033;-67
2022/05/16 02:45:31;;;;;;;13.85;3.20;;;;;;;21.00;40.97;101450.19;5053647;28;20040;-68
2022/05/16 02:47:56;;;;;;;13.88;3.38;;;;;;;20.86;41.21;101445.59;5053335;28;20092;-68
2022/05/16 02:50:23;;;;;;;11.35;3.50;;;;;;;20.97;40.66;101444.47;5053204;28;20118;-67
2022/05/16 02:52:50;;;;;;;7.20;2.78;;;;;;;21.06;40.82;101442.81;5052438;28;20032;-68
2022/05/16 02:55:15;;;;;;;11.10;3.40;;;;;;;20.87;41.19;101437.09;5053451;28;20077;-66
2022/05/16 02:57:41;;;;;;;10.68;3.15;;;;;;;20.98;41.36;101429.69;5053262;28;20052;-67
2022/05/16 03:00:08;;;;;;;14.00;3.75;;;;;;;20.89;41.52;101429.44;5053223;28;20061;-67
2022/05/16 03:02:35;;;;;;;14.02;4.43;;;;;;;20.81;41.85;101423.75;5053283;28;20515;-68
2022/05/16 03:05:02;;;;;;;12.10;3.17;;;;;;;20.90;41.83;101431.09;5053447;28;20472;-69
2022/05/16 03:07:27;;;;;;;6.50;3.00;;;;;;;20.52;42.58;101429.00;5053613;28;20075;-68
2022/05/16 03:09:53;;;;;;;17.08;3.75;;;;;;;20.26;43.20;101424.72;5053239;28;20029;-68
2022/05/16 03:12:18;;;;;;;7.38;2.92;;;;;;;20.32;43.36;101420.88;5053128;28;20079;-69
2022/05/16 03:14:44;;;;;;;11.13;3.80;;;;;;;20.34;43.55;101418.69;5053150;28;20033;-68
2022/05/16 03:17:09;;;;;;;14.20;3.45;;;;;;;20.41;42.99;101413.75;5052902;28;20064;-68
2022/05/16 03:19:35;;;;;;;16.95;3.53;;;;;;;20.41;43.38;101411.03;5053337;28;20033;-68
2022/05/16 03:22:05;;;;;;;9.82;3.67;;;;;;;20.69;42.93;101404.13;5052240;28;20407;-68
2022/05/16 03:24:31;;;;;;;15.18;4.68;;;;;;;20.87;42.07;101404.31;5033161;28;20165;-68
2022/05/16 03:26:56;;;;;;;10.82;3.63;;;;;;;20.62;42.63;101415.34;5032829;28;20382;-68
2022/05/16 03:29:22;;;;;;;9.02;3.13;;;;;;;20.52;43.31;101398.97;5032550;28;20060;-69
2022/05/16 03:31:47;;;;;;;19.00;3.53;;;;;;;20.58;42.99;101410.72;5049386;28;20044;-68
2022/05/16 03:34:13;;;;;;;10.95;3.90;;;;;;;20.96;42.13;101399.09;5052578;28;20565;-68
2022/05/16 03:36:39;;;;;;;14.23;3.88;;;;;;;20.58;42.84;101400.59;5052194;28;20040;-67
2022/05/16 03:41:50;;;;;;;11.35;3.65;;;;;;;20.71;42.57;101399.22;5052463;28;20489;-67
2022/05/16 03:44:16;;;;;;;11.88;3.55;;;;;;;20.88;42.39;101397.78;5052065;28;20116;-69
2022/05/16 03:46:41;;;;;;;9.77;4.00;;;;;;;20.97;41.89;101398.81;5053161;28;20064;-68
2022/05/16 03:49:07;;;;;;;10.15;3.55;;;;;;;21.06;42.25;101401.81;5051502;28;20025;-67
2022/05/16 03:51:33;;;;;;;8.07;3.03;;;;;;;21.21;41.58;101409.13;5052407;28;20417;-69
2022/05/16 03:53:58;;;;;;;12.25;3.75;;;;;;;20.93;42.48;101399.69;5052013;28;20090;-68
2022/05/16 03:56:27;;;;;;;7.40;3.70;;;;;;;21.03;42.33;101396.91;5052027;28;20040;-67
2022/05/16 03:58:53;;;;;;;9.40;3.47;;;;;;;20.81;42.59;101396.44;5052220;28;20024;-68
2022/05/16 04:01:19;;;;;;;10.10;3.35;;;;;;;21.16;42.32;101403.69;5050426;28;20037;-67
2022/05/16 04:03:45;;;;;;;10.63;3.63;;;;;;;20.84;42.77;101404.06;5052182;28;20033;-67
2022/05/16 04:06:11;;;;;;;9.38;3.00;;;;;;;20.62;43.48;101396.22;5052028;28;20508;-68
2022/05/16 04:08:36;;;;;;;11.95;3.90;;;;;;;20.79;42.89;101401.38;5045795;28;20595;-66
2022/05/16 04:11:05;;;;;;;18.65;3.45;;;;;;;20.44;43.89;101401.47;5042166;28;20029;-70
2022/05/16 04:13:32;;;;;;;17.83;3.97;;;;;;;20.36;43.96;101393.84;5051669;28;20041;-72
2022/05/16 04:15:58;;;;;;;9.60;3.10;;;;;;;20.43;43.99;101397.94;5053059;28;20115;-70
2022/05/16 04:18:23;;;;;;;10.48;3.55;;;;;;;20.58;43.73;101402.53;5061506;28;20037;-70
2022/05/16 04:20:48;;;;;;;13.35;3.97;;;;;;;20.79;43.53;101399.47;5062019;28;20041;-72
2022/05/16 04:23:14;;;;;;;11.00;3.30;;;;;;;20.56;43.86;101396.53;5060764;28;20036;-69
2022/05/16 04:25:40;;;;;;;21.35;3.85;;;;;;;20.98;42.89;101396.91;5061183;28;20477;-72
2022/05/16 04:28:08;;;;;;;11.20;3.75;;;;;;;20.90;43.12;101403.78;5061221;28;20028;-71
2022/05/16 04:30:34;;;;;;;14.77;4.43;;;;;;;20.87;43.15;101414.44;5062446;28;20033;-71
2022/05/16 04:32:59;;;;;;;13.35;3.65;;;;;;;21.09;42.73;101408.66;5062779;28;20036;-71
2022/05/16 04:35:25;;;;;;;15.30;4.45;;;;;;;21.08;42.68;101402.34;5061341;28;20420;-70
2022/05/16 04:37:51;;;;;;;10.95;3.40;;;;;;;21.12;42.75;101402.59;5061415;28;20024;-70
2022/05/16 04:40:17;;;;;;;10.27;3.53;;;;;;;20.95;43.19;101411.16;5058693;28;20037;-70
2022/05/16 04:42:46;;;;;;;9.85;3.70;;;;;;;20.59;43.90;101412.34;5062206;28;20138;-70
2022/05/16 04:45:16;;;;;;;13.93;3.60;;;;;;;20.88;43.28;101405.97;5063126;28;20122;-68
2022/05/16 04:47:43;;;;;;;13.20;4.10;;;;;;;20.95;43.17;101406.47;5059078;28;20116;-70
2022/05/16 04:50:10;;;;;;;12.82;3.97;;;;;;;20.91;43.21;101410.84;5061027;28;20659;-68
2022/05/16 04:52:36;;;;;;;9.10;3.80;;;;;;;20.81;43.59;101405.44;5063089;28;20033;-70
2022/05/16 04:55:02;;;;;;;7.30;3.45;;;;;;;20.76;43.68;101399.19;5060510;28;20036;-71
2022/05/16 04:57:28;;;;;;;7.55;3.33;;;;;;;20.70;44.08;101401.13;5061166;28;20090;-71
2022/05/16 04:59:53;;;;;;;15.10;4.40;;;;;;;20.46;44.64;101404.75;5062880;28;20028;-70
2022/05/16 05:02:19;;;;;;;17.50;4.63;;;;;;;20.52;44.82;101403.66;5060578;28;20049;-70
2022/05/16 05:04:45;;;;;;;9.75;3.83;;;;;;;20.79;43.67;101399.47;5062296;28;20048;-70
2022/05/16 05:07:12;;;;;;;13.55;4.38;;;;;;;20.72;44.01;101401.66;5062378;28;20044;-70
2022/05/16 05:15:09;;;;;;;13.73;3.65;;;;;;;20.89;43.63;101409.53;5058876;28;20095;-69
2022/05/16 05:17:35;;;;;;;8.60;3.67;;;;;;;21.28;43.00;101410.44;5062472;28;20041;-70
2022/05/16 05:20:02;;;;;;;12.75;3.85;;;;;;;21.33;42.58;101399.47;5059986;28;20082;-70
2022/05/16 05:22:28;;;;;;;7.38;3.53;;;;;;;20.84;43.87;101410.34;5058176;28;20040;-68
2022/05/16 05:24:53;;;;;;;12.20;3.92;;;;;;;21.36;42.88;101406.31;5061392;28;20392;-68
2022/05/16 05:27:19;;;;;;;7.13;3.50;;;;;;;21.42;42.35;101400.53;5056445;28;20049;-68
2022/05/16 05:29:46;;;;;;;16.48;3.50;;;;;;;20.67;44.49;101409.06;5056637;28;20047;-69
2022/05/16 05:32:11;;;;;;;17.70;3.67;;;;;;;21.42;42.88;101405.16;5059342;28;20121;-70
2022/05/16 05:34:40;;;;;;;14.52;4.72;;;;;;;20.78;44.57;101402.44;5050868;28;20049;-69
2022/05/16 05:37:05;;;;;;;11.98;5.03;;;;;;;21.37;42.90;101411.47;5053541;28;20503;-68
2022/05/16 05:39:31;;;;;;;13.30;4.03;;;;;;;21.46;42.95;101407.03;5052455;28;20028;-68
2022/05/16 05:41:57;;;;;;;14.52;4.38;;;;;;;20.96;43.94;101402.66;5064120;28;20037;-69
2022/05/16 05:44:23;;;;;;;13.88;5.25;;;;;;;21.19;43.42;101409.41;5061642;28;20369;-68
2022/05/16 05:46:49;;;;;;;12.80;3.60;;;;;;;21.37;43.21;101395.06;5060313;28;20086;-68
2022/05/16 05:49:14;;;;;;;10.73;4.40;;;;;;;21.52;43.07;101397.69;5059058;28;20047;-69
2022/05/16 05:51:40;;;;;;;17.17;3.95;;;;;;;21.58;42.84;101398.50;5051503;28;20075;-71
2022/05/16 05:54:06;;;;;;;17.75;4.07;;;;;;;21.91;42.29;101396.91;5051236;28;20048;-69
2022/05/16 05:56:33;;;;;;;12.20;4.57;;;;;;;21.48;43.56;101390.38;5051793;28;20111;-69
2022/05/16 05:58:59;;;;;;;14.63;3.78;;;;;;;21.07;44.10;101389.78;5051423;28;20033;-68
2022/05/16 06:01:25;;;;;;;9.68;3.05;;;;;;;21.25;43.78;101380.94;5051783;28;20040;-69
2022/05/16 06:03:51;;;;;;;12.30;3.78;;;;;;;22.03;42.21;101387.22;5051182;28;20051;-70
2022/05/16 06:06:16;;;;;;;12.25;4.20;;;;;;;22.11;41.91;101383.84;5051585;28;20112;-68
2022/05/16 06:08:42;;;;;;;13.15;3.83;;;;;;;22.44;41.46;101382.13;5055363;28;20044;-69
2022/05/16 06:11:07;;;;;;;8.55;3.22;;;;;;;21.79;42.70;101389.03;5055086;28;20040;-70
2022/05/16 06:13:33;;;;;;;9.82;3.47;;;;;;;22.07;41.94;101381.97;5044398;28;20488;-69
2022/05/16 06:15:58;;;;;;;19.45;5.35;;;;;;;22.21;41.90;101381.00;5050599;28;20049;-71
2022/05/16 06:18:24;;;;;;;13.32;3.88;;;;;;;22.41;41.18;101383.53;5064650;28;20091;-71
2022/05/16 06:20:49;;;;;;;11.63;3.35;;;;;;;22.73;40.60;101377.44;5059024;28;20045;-70
2022/05/16 06:23:15;;;;;;;10.57;4.15;;;;;;;22.82;40.45;101383.09;5051223;28;20142;-70
2022/05/16 06:25:42;;;;;;;13.80;4.60;;;;;;;22.92;40.54;101391.19;5062631;28;20021;-69
2022/05/16 06:28:17;;;;;;;13.02;3.65;;;;;;;23.40;39.35;101385.34;5064455;28;20028;-70
2022/05/16 06:30:45;;;;;;;9.77;4.18;;;;;;;23.54;38.89;101386.22;5064419;28;20355;-71
2022/05/16 06:33:11;;;;;;;11.85;3.75;;;;;;;23.62;38.50;101390.22;5076192;28;20060;-69
2022/05/16 06:35:37;;;;;;;18.98;4.32;;;;;;;23.38;39.48;101382.06;5065162;28;20068;-71
2022/05/16 06:38:25;;;;;;;8.18;3.92;;;;;;;23.51;39.53;101384.06;5062419;28;20082;-71
2022/05/16 06:40:51;;;;;;;11.02;3.80;;;;;;;23.60;39.15;101375.97;5063112;28;20017;-71
2022/05/16 06:43:19;;;;;;;7.95;3.88;;;;;;;23.91;38.75;101379.00;5061561;28;20090;-69
2022/05/16 06:45:44;;;;;;;13.15;4.80;;;;;;;23.97;38.61;101386.88;5063834;28;20128;-71
2022/05/16 06:48:10;;;;;;;10.57;3.75;;;;;;;23.98;39.27;101390.44;5064239;28;20028;-70
2022/05/16 06:50:37;;;;;;;13.98;4.05;;;;;;;24.51;37.80;101380.66;5061348;28;20038;-71
2022/05/16 06:53:03;;;;;;;14.23;4.25;;;;;;;24.10;38.52;101377.06;5058302;28;20037;-69
2022/05/16 06:55:29;;;;;;;15.75;3.42;;;;;;;24.13;39.28;101382.78;5068535;28;20056;-70
2022/05/16 06:57:56;;;;;;;12.57;3.47;;;;;;;24.41;38.74;101372.66;5074546;28;20423;-72
2022/05/16 07:00:21;;;;;;;9.15;3.33;;;;;;;24.71;37.57;101377.50;5074296;28;20090;-70
2022/05/16 07:02:47;;;;;;;10.10;3.33;;;;;;;24.79;37.61;101378.75;5074240;28;20041;-70
2022/05/16 07:05:13;;;;;;;11.70;4.10;;;;;;;24.45;38.30;101370.09;5072606;28;20250;-70
2022/05/16 07:07:39;;;;;;;14.50;4.28;;;;;;;24.15;38.61;101380.56;5074875;28;20036;-70
2022/05/16 07:10:05;;;;;;;12.68;3.90;;;;;;;24.84;37.53;101387.75;5074382;28;20040;-70
2022/05/16 07:12:31;;;;;;;10.55;3.90;;;;;;;24.98;37.20;101395.97;5072870;28;20036;-71
2022/05/16 07:14:56;;;;;;;9.40;4.43;;;;;;;25.07;37.15;101402.38;5073675;28;20438;-70
2022/05/16 07:17:22;;;;;;;6.65;3.50;;;;;;;25.19;36.53;101402.66;5054229;28;20040;-70
2022/05/16 07:19:49;;;;;;;11.82;3.20;;;;;;;25.30;36.18;101395.78;5053846;28;20044;-69
2022/05/16 07:22:16;;;;;;;17.73;4.80;;;;;;;25.43;36.14;101399.66;5054400;28;20407;-71
2022/05/16 07:24:43;;;;;;;13.85;3.25;;;;;;;25.26;36.36;101401.09;5054114;28;20025;-71
2022/05/16 07:29:54;;;;;;;11.43;4.57;;;;;;;25.59;36.17;101415.50;5054077;28;20094;-71
2022/05/16 07:32:20;;;;;;;13.70;4.05;;;;;;;25.59;36.48;101417.47;5053547;28;20041;-71
2022/05/16 07:34:45;;;;;;;11.68;3.72;;;;;;;26.01;35.51;101426.03;5051449;28;20041;-71
2022/05/16 07:37:11;;;;;;;8.10;3.92;;;;;;;25.84;35.53;101425.09;5053793;28;20033;-72
2022/05/16 07:39:37;;;;;;;17.13;4.75;;;;;;;26.24;35.29;101426.06;5053623;28;20036;-73
2022/05/16 07:42:06;;;;;;;11.40;4.45;;;;;;;26.38;35.55;101427.56;5053901;28;20103;-73
2022/05/16 07:44:32;;;;;;;11.75;4.18;;;;;;;26.32;35.52;101417.81;5053711;28;20029;-71
2022/05/16 07:46:58;;;;;;;14.10;4.60;;;;;;;26.60;34.82;101424.78;5053512;28;20443;-71
2022/05/16 07:49:23;;;;;;;16.23;3.45;;;;;;;26.68;34.80;101418.47;5054490;28;20025;-72
2022/05/16 07:51:49;;;;;;;9.98;4.05;;;;;;;27.11;34.59;101415.88;5053772;28;20033;-73
2022/05/16 07:54:14;;;;;;;15.13;3.97;;;;;;;27.00;34.48;101420.06;5053527;28;20047;-71
2022/05/16 07:56:40;;;;;;;10.82;3.67;;;;;;;27.38;34.04;101421.13;5053315;28;20056;-72
2022/05/16 07:59:06;;;;;;;14.32;3.65;;;;;;;27.21;33.87;101421.09;5053295;28;20029;-71
2022/05/16 08:01:32;;;;;;;16.00;3.75;;;;;;;27.22;33.58;101408.09;5053829;28;20494;-72
2022/05/16 08:03:57;;;;;;;7.53;3.72;;;;;;;27.16;33.56;101421.25;5053253;28;20105;-71
2022/05/16 08:06:27;;;;;;;7.75;3.75;;;;;;;27.06;34.01;101423.50;5053234;28;20041;-73
2022/05/16 08:11:37;;;;;;;9.25;3.40;;;;;;;27.33;33.89;101418.53;5052885;28;20376;-71
2022/05/16 08:14:03;;;;;;;16.38;4.47;;;;;;;27.98;32.47;101418.41;5052444;28;20041;-71
2022/05/16 08:16:28;;;;;;;8.63;2.90;;;;;;;27.81;32.81;101429.44;5061263;28;20098;-73
2022/05/16 08:18:53;;;;;;;8.10;2.80;;;;;;;28.23;31.95;101431.34;5072367;28;20032;-70
2022/05/16 08:21:19;;;;;;;9.15;3.05;;;;;;;28.39;31.46;101431.63;5072713;28;20037;-71
2022/05/16 08:23:44;;;;;;;12.95;3.20;;;;;;;28.36;31.09;101432.28;5057941;28;20033;-71
2022/05/16 08:26:10;;;;;;;7.97;3.42;;;;;;;28.84;30.94;101438.31;5052447;28;20033;-71
2022/05/16 08:28:36;;;;;;;11.00;3.35;;;;;;;28.59;31.32;101442.81;5060969;28;20048;-70
2022/05/16 08:31:02;;;;;;;9.73;3.10;;;;;;;28.55;31.14;101438.28;5059645;28;20029;-71
2022/05/16 08:33:28;;;;;;;14.30;3.55;;;;;;;28.96;30.69;101452.25;5062844;28;20045;-71
2022/05/16 08:41:29;;;;;;;9.90;3.63;;;;;;;28.90;30.79;101442.50;5060296;28;20048;-70
2022/05/16 08:44:21;;;;;;;9.43;3.60;;;;;;;29.59;30.39;101455.94;5060668;28;20036;-70
2022/05/16 08:47:13;;;;;;;15.48;4.13;;;;;;;29.84;30.01;101454.94;5061881;28;20029;-71
2022/05/16 08:49:53;;;;;;;7.90;2.67;;;;;;;28.01;32.17;101453.66;5075827;28;20044;-71
2022/05/16 08:52:27;;;;;;;11.10;3.22;;;;;;;28.93;30.45;101455.69;5051911;28;20052;-71
2022/05/16 08:54:59;;;;;;;14.77;3.65;;;;;;;28.88;31.23;101455.03;5050854;28;20443;-70
2022/05/16 08:57:36;;;;;;;6.63;3.47;;;;;;;28.90;31.13;101455.53;5046887;28;20053;-71
2022/05/16 09:00:12;;;;;;;15.77;3.40;;;;;;;29.33;30.70;101450.59;5031024;28;20055;-72
2022/05/16 09:02:43;;;;;;;10.95;2.75;;;;;;;29.39;29.63;101455.59;5031260;28;20047;-71
2022/05/16 09:05:24;;;;;;;10.07;3.80;;;;;;;28.51;31.78;101440.03;5031365;28;20080;-70
2022/05/16 09:07:51;;;;;;;;;;;;;;;28.75;31.21;101442.25;5031915;28;20042;-72
2022/05/16 09:10:21;;;;;;;13.65;3.60;;;;;;;28.22;32.35;101442.72;5031393;28;19909;-70
2022/05/16 09:13:18;;;;;;;12.02;3.90;;;;;;;28.44;32.53;101429.47;5030609;28;20473;-71
2022/05/16 09:15:54;;;;;;;6.80;3.03;;;;;;;28.73;31.73;101439.00;5037295;28;20518;-69
2022/05/16 09:19:08;;;;;;;10.80;3.13;;;;;;;28.90;31.76;101436.97;5050892;28;20037;-70
2022/05/16 09:21:44;;;;;;;13.75;3.90;;;;;;;28.59;32.47;101440.06;5028190;28;20045;-70
2022/05/16 09:24:14;;;;;;;11.93;3.08;;;;;;;28.63;33.14;101440.19;5010160;28;20244;-72
2022/05/16 09:26:48;;;;;;;;;;;;;;;28.33;33.32;101446.75;5016481;28;20045;-71
2022/05/16 09:29:27;;;;;;;15.45;3.45;;;;;;;28.49;33.88;101448.69;5027721;28;19975;-72
2022/05/16 09:32:00;;;;;;;12.13;3.42;;;;;;;29.06;32.82;101457.41;5027731;28;20079;-70
2022/05/16 09:34:26;;;;;;;12.20;3.38;;;;;;;28.84;33.33;101459.63;5028361;28;20041;-71
2022/05/16 09:36:51;;;;;;;11.00;3.78;;;;;;;28.97;33.07;101469.66;5027902;28;20045;-71
2022/05/16 09:39:23;;;;;;;13.23;3.85;;;;;;;28.70;33.12;101470.91;5010970;28;20088;-70
2022/05/16 09:42:03;;;;;;;18.65;3.13;;;;;;;29.43;31.68;101461.25;5026576;28;20041;-70
2022/05/16 09:44:48;;;;;;;11.40;3.28;;;;;;;29.20;31.74;101466.31;5027539;28;20053;-70
2022/05/16 09:47:19;;;;;;;7.13;3.15;;;;;;;29.61;30.86;101471.06;5027647;28;20111;-70
2022/05/16 09:50:03;;;;;;;10.32;3.83;;;;;;;30.06;30.55;101466.47;5027991;28;20053;-71
2022/05/16 09:52:34;;;;;;;10.38;2.97;;;;;;;30.56;30.55;101469.09;5027666;28;20064;-71
2022/05/16 09:55:03;;;;;;;9.73;2.97;;;;;;;30.36;29.82;101471.91;5026925;28;20034;-71
2022/05/16 09:57:32;;;;;;;13.30;4.15;;;;;;;29.80;31.59;101467.88;5034201;28;20405;-72
2022/05/16 10:00:16;;;;;;;9.75;2.70;;;;;;;30.59;29.87;101467.56;5050460;28;20056;-71
2022/05/16 10:02:42;;;;;;;10.75;3.40;;;;;;;30.25;30.69;101465.97;5050466;28;20037;-70
2022/05/16 10:05:19;;;;;;;10.10;3.53;;;;;;;31.10;29.88;101472.47;5049903;28;20021;-72
2022/05/16 10:07:47;;;;;;;8.82;2.58;;;;;;;30.91;29.92;101475.03;5050474;28;20124;-70
2022/05/16 10:10:19;;;;;;;7.80;3.00;;;;;;;31.18;29.57;101471.56;5049456;28;20055;-71
2022/05/16 10:12:47;;;;;;;4.80;2.58;;;;;;;30.85;29.94;101473.66;5049790;28;20062;-72
2022/05/16 10:15:13;;;;;;;4.95;2.80;;;;;;;29.89;30.67;101472.19;5049900;28;20047;-71
2022/05/16 10:17:40;;;;;;;13.93;3.60;;;;;;;30.60;30.08;101480.31;5049711;28;20523;-71
2022/05/16 10:20:32;;;;;;;8.90;3.30;;;;;;;29.80;31.54;101481.72;5049820;28;20075;-71
2022/05/16 10:23:02;;;;;;;7.20;3.00;;;;;;;30.39;30.63;101471.25;5007270;28;20046;-72
2022/05/16 10:25:38;;;;;;;9.07;3.30;;;;;;;30.50;30.52;101476.00;5007393;28;20061;-71
2022/05/16 10:28:08;;;;;;;8.18;3.55;;;;;;;30.76;29.95;101470.94;5007192;28;20041;-71
2022/05/16 10:33:24;;;;;;;11.40;3.30;;;;;;;30.67;30.28;101474.97;5006349;28;20490;-70
2022/05/16 10:33:24;;;;;;;7.93;2.83;;;;;;;30.10;31.48;101475.75;5006711;28;20046;-72
2022/05/16 10:35:55;;;;;;;5.80;2.90;;;;;;;29.81;32.23;101486.94;5006351;28;20076;-73
2022/05/16 10:38:46;;;;;;;3.72;2.38;;;;;;;30.44;30.91;101488.47;5006053;28;20452;-71
2022/05/16 10:41:21;;;;;;;8.15;3.03;;;;;;;30.16;31.80;101482.69;4929311;29;20040;-72
2022/05/16 10:44:01;;;;;;;7.28;3.58;;;;;;;31.02;30.42;101492.84;4930131;29;20083;-71
2022/05/16 10:46:31;;;;;;;7.95;3.42;;;;;;;30.24;31.66;101481.81;4930560;29;20050;-70
2022/05/16 10:49:16;;;;;;;11.57;3.35;;;;;;;30.50;30.76;101487.09;4929873;29;20094;-72
2022/05/16 10:51:53;;;;;;;7.75;3.67;;;;;;;31.73;29.22;101484.78;4930250;29;20115;-72
2022/05/16 10:54:23;;;;;;;7.35;2.60;;;;;;;31.80;29.32;101476.69;4931634;29;20566;-72
2022/05/16 10:57:04;;;;;;;7.13;2.60;;;;;;;31.53;29.09;101474.69;4933519;29;20044;-71
2022/05/16 10:59:48;;;;;;;8.30;3.20;;;;;;;31.80;29.14;101479.47;4944604;28;20066;-71
2022/05/16 11:02:38;;;;;;;6.20;2.35;;;;;;;31.39;29.49;101480.59;4988645;28;20042;-72
2022/05/16 11:05:38;;;;;;;11.63;3.00;;;;;;;30.42;31.64;101488.00;4991420;28;20113;-71
2022/05/16 11:08:13;;;;;;;5.93;2.27;;;;;;;30.88;30.11;101486.84;4990838;28;20060;-71
2022/05/16 11:10:53;;;;;;;7.57;2.78;;;;;;;31.70;29.75;101493.84;4991411;28;20018;-69
2022/05/16 11:13:29;;;;;;;6.18;2.50;;;;;;;31.68;29.27;101480.31;4991301;28;20081;-72
2022/05/16 11:15:59;;;;;;;7.28;2.63;;;;;;;31.63;28.79;101490.84;4974623;28;20104;-71
2022/05/16 11:18:49;;;;;;;4.85;2.08;;;;;;;31.09;29.86;101501.44;5016662;28;20073;-70
2022/05/16 11:21:40;;;;;;;5.38;1.88;;;;;;;31.15;29.88;101500.03;5053470;28;20150;-72
2022/05/16 11:24:19;;;;;;;6.18;2.63;;;;;;;31.63;29.74;101494.44;5035520;28;20100;-73
2022/05/16 11:27:03;;;;;;;5.68;2.55;;;;;;;31.87;29.58;101496.34;5033341;28;20060;-73
2022/05/16 11:29:50;;;;;;;5.05;2.15;;;;;;;31.80;29.67;101505.28;5043827;28;20040;-73
2022/05/16 11:32:53;;;;;;;5.88;2.28;;;;;;;32.11;30.03;101498.25;5052643;28;20121;-73
2022/05/16 11:35:45;;;;;;;11.07;2.50;;;;;;;32.74;28.09;101494.44;5052212;28;20045;-73
2022/05/16 11:38:23;;;;;;;4.00;2.05;;;;;;;33.30;26.41;101489.47;5051882;28;20033;-72
2022/05/16 11:41:03;;;;;;;8.60;1.92;;;;;;;32.61;27.77;101496.50;5052431;28;20065;-72
2022/05/16 11:43:32;;;;;;;;;;;;;;;32.64;28.11;101478.28;5053050;28;20427;-72
2022/05/16 11:46:13;;;;;;;4.70;2.13;;;;;;;33.00;27.86;101477.22;5051974;28;19970;-72
2022/05/16 11:49:10;;;;;;;8.38;2.05;;;;;;;31.83;30.18;101476.78;5052244;28;20049;-73
2022/05/16 11:51:57;;;;;;;12.18;2.60;;;;;;;31.08;30.67;101497.00;5051531;28;20476;-71
2022/05/16 11:54:27;;;;;;;6.25;2.45;;;;;;;32.70;29.28;101496.31;5051717;28;20071;-72
2022/05/16 12:00:33;;;;;;;5.18;2.97;;;;;;;31.83;29.92;101496.25;5052306;28;20036;-72
2022/05/16 12:03:12;;;;;;;6.00;2.08;;;;;;;32.31;29.03;101494.44;4989562;28;20180;-71
2022/05/16 12:05:37;;;;;;;8.63;2.92;;;;;;;32.20;28.77;101491.38;4989112;28;20632;-72